Time;durP1;ratioP1;P1;durP2;ratioP2;P2;SDS_P1;SDS_P2;PMS_P1;PMS_P2;Temp;Humidity;BMP_temperature;BMP_pressure;BME280_temperature;BME280_humidity;BME280_pressure;Samples;Min_cycle;Max_cycle;Signal;HPM_P1;HPM_P2
2022/05/03 00:00:55;;;;;;;;;;;;;;;22.34;34.18;98951.81;4482343;32;35212;-85
2022/05/03 00:03:24;;;;;;;;;;;;;;;22.28;34.39;98949.44;4468615;32;34544;-83
2022/05/03 00:06:03;;;;;;;;;;;;;;;22.39;34.13;98953.44;4468256;32;34294;-84
2022/05/03 00:08:37;;;;;;;;;;;;;;;22.40;34.11;98955.16;4467730;32;34355;-85
2022/05/03 00:11:11;;;;;;;;;;;;;;;22.06;34.74;98962.56;4468811;32;34973;-85
2022/05/03 00:13:43;;;;;;;;;;;;;;;22.07;34.61;98960.78;4468515;32;34590;-82
2022/05/03 00:16:11;;;;;;;;;;;;;;;22.02;34.85;98955.66;4469452;32;33160;-85
2022/05/03 00:18:38;;;;;;;;;;;;;;;22.13;34.43;98947.34;4454782;32;33712;-84
2022/05/03 00:21:06;;;;;;;;;;;;;;;22.23;34.00;98945.22;4468744;32;34268;-85
2022/05/03 00:23:33;;;;;;;;;;;;;;;22.32;34.01;98956.31;4455659;32;34512;-85
2022/05/03 00:26:00;;;;;;;;;;;;;;;22.48;33.92;98947.81;4484052;32;33398;-84
2022/05/03 00:28:27;;;;;;;;;;;;;;;22.42;34.06;98948.03;4469936;32;32537;-85
2022/05/03 00:30:54;;;;;;;;;;;;;;;22.30;34.17;98944.94;4469802;32;35158;-84
2022/05/03 00:33:22;;;;;;;;;;;;;;;22.40;34.05;98939.31;4470017;32;34682;-81
2022/05/03 00:35:55;;;;;;;;;;;;;;;22.45;33.98;98945.28;4457567;32;33634;-85
2022/05/03 00:38:22;;;;;;;;;;;;;;;22.39;34.05;98937.56;4476820;32;34002;-85
2022/05/03 00:40:52;;;;;;;;;;;;;;;22.48;33.91;98932.81;4468588;32;34269;-85
2022/05/03 00:43:55;;;;;;;;;;;;;;;22.48;33.87;98934.59;4454195;32;35255;-85
2022/05/03 00:46:23;;;;;;;;;;;;;;;22.48;33.84;98938.09;4420300;32;33337;-86
2022/05/03 00:49:09;;;;;;;;;;;;;;;22.56;33.69;98927.22;4461307;32;33651;-86
2022/05/03 00:51:41;;;;;;;;;;;;;;;22.53;33.71;98930.84;4475479;32;35280;-85
2022/05/03 00:54:27;;;;;;;;;;;;;;;22.53;33.57;98930.84;4469133;32;34774;-85
2022/05/03 00:56:57;;;;;;;;;;;;;;;22.51;33.67;98932.69;4482647;32;33475;-83
2022/05/03 00:59:36;;;;;;;;;;;;;;;22.36;34.09;98932.44;4470180;32;34801;-84
2022/05/03 01:02:04;;;;;;;;;;;;;;;22.37;33.96;98926.22;4470165;32;35103;-85
2022/05/03 01:04:34;;;;;;;;;;;;;;;22.37;33.91;98924.44;4468993;32;34141;-85
2022/05/03 01:07:01;;;;;;;;;;;;;;;22.34;33.84;98927.19;4484278;32;33660;-85
2022/05/03 01:09:32;;;;;;;;;;;;;;;22.31;34.14;98938.75;4474019;32;33881;-85
2022/05/03 01:12:38;;;;;;;;;;;;;;;22.09;34.53;98940.47;4468481;32;34065;-84
2022/05/03 01:15:09;;;;;;;;;;;;;;;22.24;34.14;98932.00;4446132;32;34098;-85
2022/05/03 01:17:45;;;;;;;;;;;;;;;22.45;33.85;98940.00;4450482;32;33368;-86
2022/05/03 01:20:15;;;;;;;;;;;;;;;22.18;34.16;98932.22;4462117;32;33689;-85
2022/05/03 01:22:49;;;;;;;;;;;;;;;22.13;34.33;98936.78;4484026;32;33865;-85
2022/05/03 01:25:19;;;;;;;;;;;;;;;22.01;34.58;98942.50;4482792;32;34272;-84
2022/05/03 01:28:06;;;;;;;;;;;;;;;22.01;34.58;98940.75;4483580;32;33418;-86
2022/05/03 01:30:33;;;;;;;;;;;;;;;21.93;34.68;98942.78;4472670;32;34836;-84
2022/05/03 01:33:08;;;;;;;;;;;;;;;22.01;34.32;98942.50;4483991;32;34448;-84
2022/05/03 01:35:36;;;;;;;;;;;;;;;22.04;34.28;98943.25;4483418;32;34808;-85
2022/05/03 01:38:04;;;;;;;;;;;;;;;21.76;34.91;98943.44;4483901;32;33658;-85
2022/05/03 01:40:31;;;;;;;;;;;;;;;21.96;34.52;98944.47;4483167;32;34076;-85
2022/05/03 01:43:12;;;;;;;;;;;;;;;22.13;34.10;98935.94;4483428;32;34536;-84
2022/05/03 01:45:46;;;;;;;;;;;;;;;22.01;34.32;98947.78;4469884;32;35036;-82
2022/05/03 01:48:18;;;;;;;;;;;;;;;21.83;34.47;98944.94;4469765;32;33190;-85
2022/05/03 01:50:49;;;;;;;;;;;;;;;21.70;34.83;98943.63;4469372;32;35234;-84
2022/05/03 01:53:19;;;;;;;;;;;;;;;21.62;35.03;98945.69;4469089;32;34011;-85
2022/05/03 01:55:52;;;;;;;;;;;;;;;21.59;35.35;98935.25;4469614;32;34408;-85
2022/05/03 01:58:19;;;;;;;;;;;;;;;21.89;35.12;98942.97;4470069;32;33840;-85
2022/05/03 02:00:54;;;;;;;;;;;;;;;21.84;35.02;98946.63;4483426;32;34000;-86
2022/05/03 02:03:41;;;;;;;;;;;;;;;21.86;34.82;98938.69;4469434;32;34958;-85
2022/05/03 02:06:15;;;;;;;;;;;;;;;21.86;35.02;98938.69;4469445;32;35282;-85
2022/05/03 02:08:45;;;;;;;;;;;;;;;21.71;35.12;98948.03;4465022;32;33987;-85
2022/05/03 02:11:20;;;;;;;;;;;;;;;21.71;34.70;98944.53;4479381;32;34500;-84
2022/05/03 02:16:54;;;;;;;;;;;;;;;21.85;34.55;98943.06;4471537;32;34239;-85
2022/05/03 02:19:40;;;;;;;;;;;;;;;21.90;34.57;98944.72;4474725;32;33751;-86
2022/05/03 02:22:22;;;;;;;;;;;;;;;21.92;34.50;98943.72;4467848;32;34215;-85
2022/05/03 02:24:59;;;;;;;;;;;;;;;21.74;34.88;98947.88;4467808;32;35213;-85
2022/05/03 02:27:26;;;;;;;;;;;;;;;21.84;34.62;98948.41;4468625;32;34401;-85
2022/05/03 02:29:53;;;;;;;;;;;;;;;21.82;34.55;98943.22;4456322;32;33746;-84
2022/05/03 02:32:22;;;;;;;;;;;;;;;21.78;34.70;98946.88;4469367;32;34934;-85
2022/05/03 02:34:49;;;;;;;;;;;;;;;21.74;34.81;98937.31;4468836;32;35299;-84
2022/05/03 02:37:18;;;;;;;;;;;;;;;21.74;34.78;98945.25;4466245;32;35100;-85
2022/05/03 02:39:47;;;;;;;;;;;;;;;21.43;35.00;98941.97;4453406;32;33377;-86
2022/05/03 02:42:15;;;;;;;;;;;;;;;21.76;34.35;98938.16;4471695;32;33768;-85
2022/05/03 02:44:43;;;;;;;;;;;;;;;21.64;34.70;98938.59;4468854;32;34547;-85
2022/05/03 02:47:13;;;;;;;;;;;;;;;21.46;35.00;98940.09;4483654;32;34248;-85
2022/05/03 02:49:58;;;;;;;;;;;;;;;21.33;35.14;98944.94;4469243;32;34076;-83
2022/05/03 02:52:32;;;;;;;;;;;;;;;21.50;34.78;98943.50;4482550;32;34688;-85
2022/05/03 02:55:02;;;;;;;;;;;;;;;21.41;34.83;98941.19;4479579;32;33976;-85
2022/05/03 02:57:29;;;;;;;;;;;;;;;21.47;34.79;98943.59;4483413;32;35261;-85
2022/05/03 03:02:55;;;;;;;;;;;;;;;21.26;34.89;98943.41;4483136;32;34189;-85
2022/05/03 03:05:23;;;;;;;;;;;;;;;21.33;34.85;98944.94;4482456;32;34404;-86
2022/05/03 03:07:56;;;;;;;;;;;;;;;21.26;35.04;98946.03;4468944;32;33892;-85
2022/05/03 03:10:42;;;;;;;;;;;;;;;21.20;35.27;98943.59;4469325;32;33071;-86
2022/05/03 03:13:15;;;;;;;;;;;;;;;21.21;35.19;98942.69;4482994;32;34227;-86
2022/05/03 03:15:42;;;;;;;;;;;;;;;21.22;35.08;98947.06;4468097;32;35129;-85
2022/05/03 03:18:13;;;;;;;;;;;;;;;21.04;35.57;98947.69;4483293;32;34552;-85
2022/05/03 03:20:42;;;;;;;;;;;;;;;21.10;35.42;98942.19;4483227;32;33687;-84
2022/05/03 03:23:10;;;;;;;;;;;;;;;21.19;35.14;98944.53;4482880;32;33601;-82
2022/05/03 03:25:37;;;;;;;;;;;;;;;21.13;35.19;98942.94;4468105;32;35164;-86
2022/05/03 03:28:04;;;;;;;;;;;;;;;20.93;35.32;98936.63;4483229;32;33741;-85
2022/05/03 03:30:31;;;;;;;;;;;;;;;20.83;35.25;98936.91;4482595;32;34478;-85
2022/05/03 03:32:59;;;;;;;;;;;;;;;20.95;35.11;98934.78;4483372;32;33868;-85
2022/05/03 03:35:26;;;;;;;;;;;;;;;21.12;34.81;98935.94;4468469;32;33625;-86
2022/05/03 03:37:57;;;;;;;;;;;;;;;20.84;35.49;98946.56;4468745;32;35227;-84
2022/05/03 03:40:25;;;;;;;;;;;;;;;20.89;35.57;98939.34;4469016;32;33629;-86
2022/05/03 03:42:52;;;;;;;;;;;;;;;20.94;35.24;98948.87;4468699;32;34138;-85
2022/05/03 03:45:19;;;;;;;;;;;;;;;21.02;35.11;98949.47;4478017;32;35098;-85
2022/05/03 03:47:47;;;;;;;;;;;;;;;21.13;34.80;98947.34;4453237;32;35126;-85
2022/05/03 03:50:14;;;;;;;;;;;;;;;21.12;34.93;98941.22;4477775;32;34509;-85
2022/05/03 03:52:42;;;;;;;;;;;;;;;21.21;34.97;98947.09;4482778;32;34337;-84
2022/05/03 03:55:10;;;;;;;;;;;;;;;21.21;35.08;98950.59;4482906;32;34421;-86
2022/05/03 03:57:37;;;;;;;;;;;;;;;21.29;34.79;98953.84;4482873;32;34995;-85
2022/05/03 04:00:06;;;;;;;;;;;;;;;21.31;34.75;98952.00;4476628;32;33784;-85
2022/05/03 04:02:37;;;;;;;;;;;;;;;21.28;34.91;98959.16;4482826;32;34900;-85
2022/05/03 04:05:05;;;;;;;;;;;;;;;21.35;34.83;98963.34;4482573;32;35266;-85
2022/05/03 04:07:32;;;;;;;;;;;;;;;21.48;34.65;98951.47;4468249;32;34102;-85
2022/05/03 04:09:59;;;;;;;;;;;;;;;21.57;34.49;98958.19;4473451;32;33824;-85
2022/05/03 04:12:27;;;;;;;;;;;;;;;21.75;34.33;98956.69;4467088;32;34007;-85
2022/05/03 04:14:54;;;;;;;;;;;;;;;21.76;34.09;98961.91;4466927;32;34282;-85
2022/05/03 04:17:21;;;;;;;;;;;;;;;21.83;34.05;98960.75;4466947;32;34546;-84
2022/05/03 04:19:48;;;;;;;;;;;;;;;22.00;34.07;98959.28;4478504;32;33702;-86
2022/05/03 04:22:29;;;;;;;;;;;;;;;22.16;34.07;98951.66;4468177;32;33942;-84
2022/05/03 04:24:57;;;;;;;;;;;;;;;22.44;33.98;98951.50;4482475;32;34336;-85
2022/05/03 04:27:25;;;;;;;;;;;;;;;22.89;33.13;98953.22;4468154;32;35082;-85
2022/05/03 04:29:52;;;;;;;;;;;;;;;22.62;33.92;98949.91;4471378;32;33758;-86
2022/05/03 04:32:20;;;;;;;;;;;;;;;23.38;32.91;98959.13;4482425;32;34823;-85
2022/05/03 04:34:48;;;;;;;;;;;;;;;23.95;31.74;98955.75;4467770;32;33678;-85
2022/05/03 04:37:15;;;;;;;;;;;;;;;24.14;31.52;98958.41;4482342;32;35119;-85
2022/05/03 04:39:43;;;;;;;;;;;;;;;24.46;30.88;98956.94;4481744;32;33490;-85
2022/05/03 04:42:10;;;;;;;;;;;;;;;23.38;32.60;98959.13;4482145;32;34403;-85
2022/05/03 04:44:38;;;;;;;;;;;;;;;23.88;32.12;98966.69;4482056;32;35309;-85
2022/05/03 04:47:05;;;;;;;;;;;;;;;24.93;30.79;98945.84;4481997;32;34356;-85
2022/05/03 04:49:33;;;;;;;;;;;;;;;24.61;30.81;98954.50;4473696;32;34415;-85
2022/05/03 04:52:00;;;;;;;;;;;;;;;24.35;31.38;98961.00;4479489;32;33985;-85
2022/05/03 04:54:28;;;;;;;;;;;;;;;25.53;29.86;98958.75;4482078;32;34085;-86
2022/05/03 04:57:00;;;;;;;;;;;;;;;25.46;30.21;98958.22;4481798;32;35071;-85
2022/05/03 04:59:28;;;;;;;;;;;;;;;26.22;28.93;98962.25;4467241;32;33385;-84
2022/05/03 05:01:55;;;;;;;;;;;;;;;25.88;29.50;98964.94;4475098;32;33615;-84
2022/05/03 05:04:23;;;;;;;;;;;;;;;26.18;29.15;98970.41;4484147;32;33680;-85
2022/05/03 05:06:50;;;;;;;;;;;;;;;25.93;29.55;98975.28;4483662;32;34781;-85
2022/05/03 05:09:20;;;;;;;;;;;;;;;25.86;29.79;98976.56;4477741;32;34931;-85
2022/05/03 05:11:48;;;;;;;;;;;;;;;26.01;28.87;98975.75;4468695;32;34864;-86
2022/05/03 05:14:19;;;;;;;;;;;;;;;26.49;29.14;98976.72;4476868;32;34451;-83
2022/05/03 05:16:50;;;;;;;;;;;;;;;26.34;29.27;98974.88;4493649;31;35130;-84
2022/05/03 05:19:17;;;;;;;;;;;;;;;26.56;28.36;98972.78;4482460;32;34409;-82
2022/05/03 05:21:44;;;;;;;;;;;;;;;26.36;28.84;98975.62;4490576;31;34307;-82
2022/05/03 05:24:12;;;;;;;;;;;;;;;26.78;28.98;98977.72;4479023;32;34018;-84
2022/05/03 05:26:40;;;;;;;;;;;;;;;26.92;28.59;98969.81;4469350;32;33852;-85
2022/05/03 05:29:08;;;;;;;;;;;;;;;27.04;28.48;98972.72;4479463;32;34335;-84
2022/05/03 05:31:35;;;;;;;;;;;;;;;26.84;28.45;98968.56;4481418;32;34320;-83
2022/05/03 05:34:03;;;;;;;;;;;;;;;27.06;26.75;98961.06;4483204;32;35224;-84
2022/05/03 05:36:30;;;;;;;;;;;;;;;26.98;27.91;98968.62;4481114;32;34111;-84
2022/05/03 05:38:57;;;;;;;;;;;;;;;27.39;27.71;98970.72;4468013;32;34237;-85
2022/05/03 05:41:24;;;;;;;;;;;;;;;26.83;27.43;98966.84;4468206;32;34945;-84
2022/05/03 05:43:51;;;;;;;;;;;;;;;27.03;26.21;98965.69;4476332;32;35091;-82
2022/05/03 05:46:18;;;;;;;;;;;;;;;26.57;28.45;98971.81;4467989;32;34360;-84
2022/05/03 05:48:46;;;;;;;;;;;;;;;26.13;27.58;98976.88;4468210;32;34351;-84
2022/05/03 05:51:14;;;;;;;;;;;;;;;25.59;27.48;98977.03;4468433;32;34002;-84
2022/05/03 05:53:41;;;;;;;;;;;;;;;26.32;27.64;98982.06;4469732;32;33473;-85
2022/05/03 05:56:09;;;;;;;;;;;;;;;26.81;26.65;98976.69;4483888;32;34301;-85
2022/05/03 05:58:37;;;;;;;;;;;;;;;26.73;27.51;98971.81;4484146;32;33684;-85
2022/05/03 06:01:04;;;;;;;;;;;;;;;25.75;29.07;98979.75;4483859;32;34817;-83
2022/05/03 06:03:33;;;;;;;;;;;;;;;25.91;29.61;98980.72;4482906;32;34435;-83
2022/05/03 06:06:00;;;;;;;;;;;;;;;24.21;30.65;98975.75;4468001;32;34421;-84
2022/05/03 06:08:37;;;;;;;;;;;;;;;25.71;29.04;98973.72;4468036;32;34382;-83
2022/05/03 06:11:04;;;;;;;;;;;;;;;26.11;28.16;98976.97;4453984;32;34658;-83
2022/05/03 06:13:31;;;;;;;;;;;;;;;25.95;29.42;98981.41;4467886;32;34123;-83
2022/05/03 06:16:08;;;;;;;;;;;;;;;25.13;28.95;98975.84;4483671;32;34188;-84
2022/05/03 06:18:36;;;;;;;;;;;;;;;25.18;29.77;98977.31;4483619;32;34172;-84
2022/05/03 06:21:05;;;;;;;;;;;;;;;24.36;30.21;98978.59;4483514;32;34050;-84
2022/05/03 06:23:32;;;;;;;;;;;;;;;24.00;31.67;98985.50;4483062;32;34202;-81
2022/05/03 06:25:59;;;;;;;;;;;;;;;24.18;31.02;98978.53;4468102;32;33910;-84
2022/05/03 06:28:27;;;;;;;;;;;;;;;25.21;30.11;98971.87;4467833;32;33521;-84
2022/05/03 06:30:54;;;;;;;;;;;;;;;25.23;29.87;98982.44;4468002;32;34034;-84
2022/05/03 06:33:21;;;;;;;;;;;;;;;24.59;31.05;98983.75;4453987;32;34340;-84
2022/05/03 06:35:49;;;;;;;;;;;;;;;23.62;30.87;98986.31;4482491;32;35087;-84
2022/05/03 06:38:16;;;;;;;;;;;;;;;24.44;30.47;98990.62;4483699;32;33507;-84
2022/05/03 06:40:43;;;;;;;;;;;;;;;24.30;30.33;98994.81;4483628;32;34236;-84
2022/05/03 06:43:10;;;;;;;;;;;;;;;25.11;29.22;98983.00;4483482;32;34445;-84
2022/05/03 06:45:38;;;;;;;;;;;;;;;24.41;30.68;98995.19;4470781;32;35186;-82
2022/05/03 06:48:06;;;;;;;;;;;;;;;24.60;30.24;98993.41;4482687;32;34379;-82
2022/05/03 06:50:36;;;;;;;;;;;;;;;24.28;29.28;98993.09;4483176;32;33880;-83
2022/05/03 06:53:03;;;;;;;;;;;;;;;25.03;28.51;98980.72;4483293;32;34322;-82
2022/05/03 06:55:31;;;;;;;;;;;;;;;25.02;29.63;98980.78;4470135;32;34304;-83
2022/05/03 06:57:58;;;;;;;;;;;;;;;25.37;27.87;98990.53;4472570;32;33656;-84
2022/05/03 07:00:25;;;;;;;;;;;;;;;25.45;27.86;98991.00;4483244;32;33785;-81
2022/05/03 07:02:53;;;;;;;;;;;;;;;25.12;28.95;98982.97;4483109;32;35278;-84
2022/05/03 07:05:20;;;;;;;;;;;;;;;25.66;28.76;98989.06;4481750;32;34730;-83
2022/05/03 07:07:47;;;;;;;;;;;;;;;26.55;27.87;98981.66;4482420;32;34377;-82
2022/05/03 07:10:15;;;;;;;;;;;;;;;26.33;26.82;98981.09;4480353;32;34199;-83
2022/05/03 07:12:42;;;;;;;;;;;;;;;26.72;26.33;98985.22;4475743;32;34159;-83
2022/05/03 07:15:10;;;;;;;;;;;;;;;26.88;26.28;98984.25;4483339;32;34338;-83
2022/05/03 07:23:11;;;;;;;;;;;;;;;27.23;26.79;98991.16;4478609;32;34367;-84
2022/05/03 07:25:38;;;;;;;;;;;;;;;27.01;26.91;98984.41;4482074;32;35139;-85
2022/05/03 07:28:06;;;;;;;;;;;;;;;25.38;26.52;98992.28;4469086;32;33399;-83
2022/05/03 07:30:34;;;;;;;;;;;;;;;26.81;25.82;98992.66;4483661;32;34172;-85
2022/05/03 07:33:02;;;;;;;;;;;;;;;26.92;25.74;98991.09;4479936;32;35236;-85
2022/05/03 07:35:30;;;;;;;;;;;;;;;25.75;27.30;99000.13;4434164;32;33112;-82
2022/05/03 07:37:58;;;;;;;;;;;;;;;26.37;26.43;98995.97;4470270;32;33637;-81
2022/05/03 07:40:25;;;;;;;;;;;;;;;26.53;26.48;98988.03;4466901;32;35723;-82
2022/05/03 07:42:53;;;;;;;;;;;;;;;26.62;26.23;98988.37;4476951;32;34329;-82
2022/05/03 07:45:21;;;;;;;;;;;;;;;26.58;27.32;98991.28;4482643;32;34017;-84
2022/05/03 07:47:48;;;;;;;;;;;;;;;26.00;26.82;98989.13;4481998;32;33372;-82
2022/05/03 07:50:18;;;;;;;;;;;;;;;27.85;23.67;98981.28;4475279;32;33823;-83
2022/05/03 07:52:46;;;;;;;;;;;;;;;27.52;24.42;98979.66;4477466;32;34962;-83
2022/05/03 07:55:13;;;;;;;;;;;;;;;26.77;25.57;98985.78;4473224;32;34400;-81
2022/05/03 07:57:40;;;;;;;;;;;;;;;26.36;26.34;98986.25;4466826;32;34386;-82
2022/05/03 08:00:08;;;;;;;;;;;;;;;27.67;24.63;98990.34;4476762;32;33601;-79
2022/05/03 08:02:35;;;;;;;;;;;;;;;27.61;24.05;98981.75;4468328;32;35416;-82
2022/05/03 08:05:03;;;;;;;;;;;;;;;27.40;25.73;98994.56;4479558;32;35009;-84
2022/05/03 08:07:30;;;;;;;;;;;;;;;27.20;24.82;98991.34;4470545;32;32997;-83
2022/05/03 08:09:57;;;;;;;;;;;;;;;25.52;27.07;98999.50;4481693;32;34345;-84
2022/05/03 08:12:25;;;;;;;;;;;;;;;25.82;27.00;98990.94;4482402;32;34122;-83
2022/05/03 08:14:53;;;;;;;;;;;;;;;25.56;27.56;98993.09;4468405;32;34199;-84
2022/05/03 08:17:20;;;;;;;;;;;;;;;26.60;26.17;98987.63;4477148;32;34361;-84
2022/05/03 08:19:47;;;;;;;;;;;;;;;26.96;26.06;98985.59;4468648;32;34394;-83
2022/05/03 08:22:15;;;;;;;;;;;;;;;26.98;25.97;98989.91;4467353;32;33819;-86
2022/05/03 08:24:43;;;;;;;;;;;;;;;26.47;26.62;98996.34;4482197;32;34543;-88
2022/05/03 08:27:10;;;;;;;;;;;;;;;26.20;27.14;98991.56;4479880;32;33207;-90
2022/05/03 08:29:37;;;;;;;;;;;;;;;26.44;27.03;98987.56;4469004;32;34082;-86
2022/05/03 08:32:05;;;;;;;;;;;;;;;26.92;27.11;98995.56;4466609;32;35255;-85
2022/05/03 08:34:32;;;;;;;;;;;;;;;26.91;26.54;98993.84;4466408;32;35295;-90
2022/05/03 08:42:32;;;;;;;;;;;;;;;27.13;25.84;98989.06;4468809;32;33638;-84
2022/05/03 08:45:01;;;;;;;;;;;;;;;27.81;25.23;98991.28;4454498;32;34573;-90
2022/05/03 08:47:28;;;;;;;;;;;;;;;28.31;23.69;98986.44;4479073;32;33778;-89
2022/05/03 08:50:09;;;;;;;;;;;;;;;27.49;24.96;98984.31;4473342;32;34225;-85
2022/05/03 08:52:43;;;;;;;;;;;;;;;27.62;25.13;98980.84;4454400;32;34535;-90
2022/05/03 08:55:11;;;;;;;;;;;;;;;26.85;25.30;98994.19;4457983;32;35141;-85
2022/05/03 08:57:38;;;;;;;;;;;;;;;27.57;23.99;98988.22;4468405;32;33984;-84
2022/05/03 09:00:06;;;;;;;;;;;;;;;27.20;25.22;98991.34;4483877;32;34280;-85
2022/05/03 09:02:33;;;;;;;;;;;;;;;27.30;24.40;98992.53;4468927;32;34043;-85
2022/05/03 09:05:01;;;;;;;;;;;;;;;28.66;22.39;98988.69;4458981;32;34237;-84
2022/05/03 09:07:30;;;;;;;;;;;;;;;28.74;22.49;98981.03;4471452;32;33655;-85
2022/05/03 09:09:57;;;;;;;;;;;;;;;28.75;22.98;98990.75;4454346;32;34256;-85
2022/05/03 09:12:27;;;;;;;;;;;;;;;28.38;22.89;98989.59;4454352;32;35293;-85
2022/05/03 09:14:58;;;;;;;;;;;;;;;28.51;22.86;98987.84;4471029;32;34513;-85
2022/05/03 09:17:38;;;;;;;;;;;;;;;28.43;23.91;98988.34;4484174;32;33975;-85
2022/05/03 09:23:46;;;;;;;;;;;;;;;27.33;24.39;98989.69;4454226;32;34080;-85
2022/05/03 09:25:50;;;;;;;;;;;;;;;27.44;23.69;98975.75;4477453;32;35443;-88
2022/05/03 09:28:19;;;;;;;;;;;;;;;27.73;23.27;98973.97;4472179;32;33453;-82
2022/05/03 09:30:47;;;;;;;;;;;;;;;28.53;23.03;98969.97;4467832;32;34019;-86
2022/05/03 09:33:14;;;;;;;;;;;;;;;28.23;23.04;98978.06;4479983;32;33924;-84
2022/05/03 09:35:42;;;;;;;;;;;;;;;27.49;23.73;98974.50;4476906;32;34562;-83
2022/05/03 09:38:09;;;;;;;;;;;;;;;27.37;23.72;98980.56;4482376;32;33592;-88
2022/05/03 09:40:40;;;;;;;;;;;;;;;27.53;24.79;98970.72;4467726;32;35032;-89
2022/05/03 09:43:11;;;;;;;;;;;;;;;28.02;23.16;98975.75;4471035;32;35378;-85
2022/05/03 09:45:39;;;;;;;;;;;;;;;29.11;23.03;98965.31;4473604;32;34497;-91
2022/05/03 09:48:06;;;;;;;;;;;;;;;27.76;24.04;98961.38;4479366;32;33982;-88
2022/05/03 09:50:37;;;;;;;;;;;;;;;29.02;22.61;98959.66;4469484;32;34328;-87
2022/05/03 09:53:16;;;;;;;;;;;;;;;29.15;21.85;98954.34;4481618;32;34218;-83
2022/05/03 09:55:45;;;;;;;;;;;;;;;28.47;22.85;98954.34;4453753;32;34389;-87
2022/05/03 09:58:13;;;;;;;;;;;;;;;28.39;23.19;98957.50;4471867;32;33803;-82
2022/05/03 10:00:41;;;;;;;;;;;;;;;27.62;23.53;98964.00;4483846;32;33684;-83
2022/05/03 10:03:09;;;;;;;;;;;;;;;28.33;24.61;98955.19;4483496;32;35235;-87
2022/05/03 10:05:38;;;;;;;;;;;;;;;28.97;22.25;98950.19;4469451;32;34153;-90
2022/05/03 10:08:05;;;;;;;;;;;;;;;28.92;21.82;98939.81;4468974;32;33370;-87
2022/05/03 10:10:33;;;;;;;;;;;;;;;29.00;20.98;98934.84;4469225;32;35008;-91
2022/05/03 10:13:00;;;;;;;;;;;;;;;29.45;21.37;98942.53;4469674;32;34404;-91
2022/05/03 10:21:11;;;;;;;;;;;;;;;28.40;23.12;98935.19;4470389;32;33997;-90
2022/05/03 10:23:39;;;;;;;;;;;;;;;28.98;20.82;98936.78;4468801;32;34291;-89
2022/05/03 10:26:08;;;;;;;;;;;;;;;28.16;21.91;98934.09;4469693;32;34691;-90
2022/05/03 10:28:54;;;;;;;;;;;;;;;28.13;21.22;98933.31;4475372;32;33419;-87
2022/05/03 10:31:22;;;;;;;;;;;;;;;29.11;20.60;98926.13;4468078;32;34202;-89
2022/05/03 10:33:49;;;;;;;;;;;;;;;28.80;21.69;98929.97;4467745;32;34448;-86
2022/05/03 10:36:32;;;;;;;;;;;;;;;28.70;21.04;98924.34;4453566;32;33833;-87
2022/05/03 10:39:03;;;;;;;;;;;;;;;29.08;22.23;98923.66;4467783;32;33645;-82
2022/05/03 10:41:30;;;;;;;;;;;;;;;28.86;21.45;98933.06;4468066;32;35194;-89
2022/05/03 10:43:57;;;;;;;;;;;;;;;29.11;21.17;98925.28;4483758;32;34196;-87
2022/05/03 10:46:25;;;;;;;;;;;;;;;29.15;20.68;98932.13;4482857;32;35017;-82
2022/05/03 10:49:15;;;;;;;;;;;;;;;29.40;19.39;98926.84;4480299;32;33318;-87
2022/05/03 10:51:43;;;;;;;;;;;;;;;28.57;21.34;98929.66;4468157;32;34140;-87
2022/05/03 10:54:11;;;;;;;;;;;;;;;28.31;22.13;98935.78;4483409;32;34072;-91
2022/05/03 10:56:58;;;;;;;;;;;;;;;26.63;25.13;98944.91;4469598;32;34321;-90
2022/05/03 10:59:26;;;;;;;;;;;;;;;27.13;25.46;98940.31;4482217;32;33662;-85
2022/05/03 11:01:53;;;;;;;;;;;;;;;26.02;26.44;98945.56;4468738;32;34299;-89
2022/05/03 11:04:21;;;;;;;;;;;;;;;26.05;26.97;98939.25;4483105;32;34142;-88
2022/05/03 11:06:51;;;;;;;;;;;;;;;25.29;26.98;98944.09;4469070;32;34806;-89
2022/05/03 11:09:29;;;;;;;;;;;;;;;25.27;27.54;98935.34;4482716;32;33402;-90
2022/05/03 11:11:58;;;;;;;;;;;;;;;24.92;28.60;98940.59;4483405;32;34912;-88
2022/05/03 11:14:25;;;;;;;;;;;;;;;25.19;28.49;98947.22;4483383;32;34220;-86
2022/05/03 11:16:52;;;;;;;;;;;;;;;24.68;29.73;98934.72;4483061;32;35193;-88
2022/05/03 11:19:21;;;;;;;;;;;;;;;24.38;29.25;98939.66;4482877;32;33774;-90
2022/05/03 11:21:49;;;;;;;;;;;;;;;25.38;27.57;98933.87;4483273;32;34241;-88
2022/05/03 11:24:23;;;;;;;;;;;;;;;24.95;26.42;98930.69;4468867;32;34347;-89
2022/05/03 11:26:54;;;;;;;;;;;;;;;23.55;28.03;98933.66;4483432;32;34391;-87
2022/05/03 11:29:26;;;;;;;;;;;;;;;23.37;25.69;98923.00;4482683;32;33588;-84
2022/05/03 11:31:53;;;;;;;;;;;;;;;23.39;25.78;98929.09;4481168;32;35166;-90
2022/05/03 11:34:20;;;;;;;;;;;;;;;23.74;25.27;98917.84;4474413;32;35046;-91
2022/05/03 11:36:50;;;;;;;;;;;;;;;24.45;23.10;98917.28;4468820;32;35262;-89
2022/05/03 11:39:18;;;;;;;;;;;;;;;23.76;23.38;98918.66;4483255;32;33528;-91
2022/05/03 11:41:46;;;;;;;;;;;;;;;23.92;24.54;98905.56;4483118;32;35042;-89
2022/05/03 11:44:13;;;;;;;;;;;;;;;23.18;27.73;98912.34;4468599;32;34471;-87
2022/05/03 11:46:42;;;;;;;;;;;;;;;22.51;28.89;98914.19;4482930;32;34155;-88
2022/05/03 11:49:10;;;;;;;;;;;;;;;22.53;29.38;98903.56;4483015;32;33672;-88
2022/05/03 11:57:20;;;;;;;;;;;;;;;23.56;26.58;98902.75;4483325;32;34156;-87
2022/05/03 11:59:48;;;;;;;;;;;;;;;24.30;26.55;98905.56;4468532;32;33307;-87
2022/05/03 12:02:18;;;;;;;;;;;;;;;24.82;25.49;98902.22;4468467;32;34949;-87
2022/05/03 12:05:04;;;;;;;;;;;;;;;24.86;25.29;98901.16;4482623;32;34452;-82
2022/05/03 12:07:35;;;;;;;;;;;;;;;25.28;25.16;98900.78;4444110;32;781542;-87
2022/05/03 12:10:16;;;;;;;;;;;;;;;25.24;23.45;98893.94;4468813;32;33688;-90
2022/05/03 12:12:43;;;;;;;;;;;;;;;25.18;23.15;98892.44;4486998;32;35095;-92
2022/05/03 12:15:15;;;;;;;;;;;;;;;26.38;21.84;98886.03;4473494;32;35322;-90
2022/05/03 12:17:52;;;;;;;;;;;;;;;26.93;21.67;98885.53;4486999;32;34283;-89
2022/05/03 12:20:20;;;;;;;;;;;;;;;27.36;21.90;98886.56;4473114;32;34467;-87
2022/05/03 12:23:08;;;;;;;;;;;;;;;25.78;24.05;98888.44;4487502;32;34978;-87
2022/05/03 12:25:36;;;;;;;;;;;;;;;26.72;22.84;98892.12;4487738;32;35302;-88
2022/05/03 12:28:04;;;;;;;;;;;;;;;25.11;24.03;98888.37;4487818;32;35169;-90
2022/05/03 12:30:32;;;;;;;;;;;;;;;25.05;24.93;98888.66;4484086;32;33470;-87
2022/05/03 12:33:04;;;;;;;;;;;;;;;24.38;25.45;98886.66;4486645;32;34906;-88
2022/05/03 12:35:32;;;;;;;;;;;;;;;25.26;23.43;98886.72;4484188;32;34060;-84
2022/05/03 12:38:13;;;;;;;;;;;;;;;25.89;23.16;98878.13;4487290;32;34693;-87
2022/05/03 12:41:00;;;;;;;;;;;;;;;25.87;22.53;98882.66;4486497;32;33080;-90
2022/05/03 12:43:29;;;;;;;;;;;;;;;26.77;22.43;98874.09;4487414;32;34296;-86
2022/05/03 12:46:00;;;;;;;;;;;;;;;27.49;21.56;98878.66;4473314;32;35269;-88
2022/05/03 12:48:31;;;;;;;;;;;;;;;27.91;21.43;98874.31;4472028;32;35138;-84
2022/05/03 12:50:59;;;;;;;;;;;;;;;27.72;21.45;98871.06;4472612;32;33343;-89
2022/05/03 12:53:30;;;;;;;;;;;;;;;26.13;23.26;98873.25;4472110;32;34933;-86
2022/05/03 12:58:21;;;;;;;;;;;;;;;26.60;22.21;98869.78;4483657;32;34291;-88
2022/05/03 12:58:45;;;;;;;;;;;;;;;26.51;21.93;98865.81;4481638;32;34162;-88
2022/05/03 13:01:13;;;;;;;;;;;;;;;26.07;22.30;98871.81;4482218;32;34399;-84
2022/05/03 13:03:41;;;;;;;;;;;;;;;27.43;20.04;98863.09;4468712;32;34002;-87
2022/05/03 13:06:09;;;;;;;;;;;;;;;27.79;19.54;98859.97;4468796;32;33717;-87
2022/05/03 13:08:36;;;;;;;;;;;;;;;27.75;20.07;98863.78;4482405;32;35758;-86
2022/05/03 13:11:03;;;;;;;;;;;;;;;28.08;19.80;98866.13;4484983;32;33368;-88
2022/05/03 13:13:31;;;;;;;;;;;;;;;27.58;20.21;98861.28;4472583;32;34228;-86
2022/05/03 13:15:58;;;;;;;;;;;;;;;27.83;20.08;98861.47;4486514;32;34340;-84
2022/05/03 13:18:25;;;;;;;;;;;;;;;27.86;20.07;98860.44;4484206;32;33731;-84
2022/05/03 13:20:54;;;;;;;;;;;;;;;28.48;19.09;98860.91;4482780;32;34268;-85
2022/05/03 13:23:22;;;;;;;;;;;;;;;28.46;18.43;98854.81;4466472;32;33730;-85
2022/05/03 13:25:49;;;;;;;;;;;;;;;28.24;19.70;98859.81;4483989;32;34237;-89
2022/05/03 13:28:16;;;;;;;;;;;;;;;28.34;20.48;98861.78;4482707;32;35413;-91
2022/05/03 13:30:44;;;;;;;;;;;;;;;25.64;23.21;98875.91;4483430;32;33320;-90
2022/05/03 13:33:11;;;;;;;;;;;;;;;26.24;21.87;98864.69;4483048;32;33391;-88